QFA4332 YSSY-YBBN
Flight info
| Callsign | QFA4332 |
|---|---|
| Flight time | 1h 9m |
| Altitude | 41000 |
| Route | OLSEM Y193 BANDA H252 GOMOL |
| Aircraft | A388/J-SADE2E3FGHIJ3J4J5M1RWXY/LB1D1 |
Departure
| Time | 2026-05-06 19:05 |
|---|---|
| Airport | Sydney Kingsford Smith International Airport (YSSY) |
Arrival
| Time | 2026-05-06 20:14 |
|---|---|
| Airport | Brisbane International Airport (YBBN) |
| Time | Latitude | Longitude | Altitude | Speed | Heading |
|---|---|---|---|---|---|
| 2026-05-06 18:20 | -33.93197 | 151.17623 | 35 ft | 0 kts | 85° |
| 2026-05-06 18:49 | -33.93197 | 151.17622 | 35 ft | 1 kts | 85° |
| 2026-05-06 18:49 | -33.93199 | 151.17595 | 35 ft | 4 kts | 85° |
| 2026-05-06 18:49 | -33.93202 | 151.17566 | 35 ft | 2 kts | 85° |
| 2026-05-06 18:50 | -33.93199 | 151.17541 | 35 ft | 4 kts | 147° |
| 2026-05-06 18:50 | -33.93175 | 151.17534 | 35 ft | 4 kts | 179° |
| 2026-05-06 18:50 | -33.93151 | 151.17532 | 35 ft | 1 kts | 168° |
| 2026-05-06 18:50 | -33.93150 | 151.17532 | 35 ft | 0 kts | 168° |
| 2026-05-06 18:52 | -33.93161 | 151.17535 | 34 ft | 6 kts | 167° |
| 2026-05-06 18:52 | -33.93218 | 151.17551 | 33 ft | 10 kts | 168° |
| 2026-05-06 18:53 | -33.93290 | 151.17568 | 35 ft | 4 kts | 168° |
| 2026-05-06 18:53 | -33.93317 | 151.17573 | 35 ft | 7 kts | 184° |
| 2026-05-06 18:53 | -33.93376 | 151.17535 | 35 ft | 11 kts | 213° |
| 2026-05-06 18:53 | -33.93452 | 151.17504 | 35 ft | 13 kts | 182° |
| 2026-05-06 18:54 | -33.93545 | 151.17520 | 34 ft | 15 kts | 167° |
| 2026-05-06 18:54 | -33.93653 | 151.17551 | 34 ft | 17 kts | 167° |
| 2026-05-06 18:54 | -33.93771 | 151.17585 | 34 ft | 18 kts | 166° |
| 2026-05-06 18:54 | -33.93901 | 151.17623 | 34 ft | 19 kts | 168° |
| 2026-05-06 18:55 | -33.94036 | 151.17649 | 33 ft | 20 kts | 170° |
| 2026-05-06 18:55 | -33.94175 | 151.17682 | 34 ft | 20 kts | 168° |
| 2026-05-06 18:55 | -33.94313 | 151.17726 | 35 ft | 21 kts | 163° |
| 2026-05-06 18:55 | -33.94453 | 151.17772 | 35 ft | 21 kts | 167° |
| 2026-05-06 18:56 | -33.94598 | 151.17812 | 35 ft | 22 kts | 167° |
| 2026-05-06 18:56 | -33.94745 | 151.17853 | 35 ft | 22 kts | 167° |
| 2026-05-06 18:56 | -33.94894 | 151.17892 | 35 ft | 22 kts | 168° |
| 2026-05-06 18:56 | -33.95044 | 151.17930 | 35 ft | 22 kts | 168° |
| 2026-05-06 18:57 | -33.95141 | 151.17958 | 35 ft | 21 kts | 152° |
| 2026-05-06 18:57 | -33.95173 | 151.18097 | 35 ft | 20 kts | 82° |
| 2026-05-06 18:57 | -33.95141 | 151.18280 | 35 ft | 20 kts | 77° |
| 2026-05-06 18:57 | -33.95110 | 151.18495 | 35 ft | 19 kts | 103° |
| 2026-05-06 18:58 | -33.95157 | 151.18588 | 35 ft | 21 kts | 136° |
| 2026-05-06 18:58 | -33.95275 | 151.18697 | 35 ft | 22 kts | 152° |
| 2026-05-06 18:58 | -33.95421 | 151.18745 | 35 ft | 22 kts | 168° |
| 2026-05-06 18:58 | -33.95566 | 151.18784 | 35 ft | 22 kts | 167° |
| 2026-05-06 18:59 | -33.95697 | 151.18818 | 35 ft | 22 kts | 167° |
| 2026-05-06 18:59 | -33.95850 | 151.18859 | 35 ft | 24 kts | 168° |
| 2026-05-06 18:59 | -33.96010 | 151.18901 | 35 ft | 23 kts | 168° |
| 2026-05-06 18:59 | -33.96169 | 151.18942 | 35 ft | 24 kts | 168° |
| 2026-05-06 19:00 | -33.96337 | 151.18988 | 35 ft | 25 kts | 167° |
| 2026-05-06 19:00 | -33.96500 | 151.19029 | 35 ft | 24 kts | 171° |
| 2026-05-06 19:00 | -33.96652 | 151.19065 | 35 ft | 17 kts | 169° |
| 2026-05-06 19:00 | -33.96758 | 151.19070 | 35 ft | 0 kts | 183° |
| 2026-05-06 19:01 | -33.96786 | 151.19069 | 35 ft | 7 kts | 180° |
| 2026-05-06 19:01 | -33.96848 | 151.19073 | 35 ft | 10 kts | 173° |
| 2026-05-06 19:01 | -33.96933 | 151.19092 | 35 ft | 16 kts | 168° |
| 2026-05-06 19:01 | -33.97010 | 151.19112 | 35 ft | 8 kts | 168° |
| 2026-05-06 19:02 | -33.97017 | 151.19114 | 35 ft | 0 kts | 166° |
| 2026-05-06 19:02 | -33.97019 | 151.19114 | 35 ft | 2 kts | 166° |
| 2026-05-06 19:02 | -33.97053 | 151.19125 | 35 ft | 7 kts | 160° |
| 2026-05-06 19:03 | -33.97104 | 151.19162 | 35 ft | 10 kts | 124° |
| 2026-05-06 19:03 | -33.97117 | 151.19234 | 34 ft | 10 kts | 81° |
| 2026-05-06 19:03 | -33.97114 | 151.19255 | 34 ft | 0 kts | 79° |
| 2026-05-06 19:03 | -33.97108 | 151.19290 | 33 ft | 11 kts | 76° |
| 2026-05-06 19:04 | -33.97052 | 151.19370 | 30 ft | 12 kts | 0° |
| 2026-05-06 19:04 | -33.97035 | 151.19369 | 30 ft | 3 kts | 351° |
| 2026-05-06 19:04 | -33.97006 | 151.19362 | 30 ft | 0 kts | 345° |
| 2026-05-06 19:04 | -33.96757 | 151.19292 | 28 ft | 90 kts | 347° |
| 2026-05-06 19:05 | -33.95849 | 151.19057 | 60 ft | 166 kts | 347° |
| 2026-05-06 19:05 | -33.94641 | 151.18847 | 666 ft | 183 kts | 355° |
| 2026-05-06 19:05 | -33.93327 | 151.19121 | 1247 ft | 203 kts | 14° |
| 2026-05-06 19:05 | -33.91974 | 151.19907 | 1647 ft | 231 kts | 26° |
| 2026-05-06 19:06 | -33.90619 | 151.21000 | 2114 ft | 255 kts | 31° |
| 2026-05-06 19:06 | -33.89149 | 151.22315 | 2680 ft | 276 kts | 34° |
| 2026-05-06 19:06 | -33.87584 | 151.23731 | 3587 ft | 284 kts | 34° |
| 2026-05-06 19:06 | -33.86024 | 151.25128 | 4695 ft | 281 kts | 34° |
| 2026-05-06 19:07 | -33.84448 | 151.26521 | 5761 ft | 282 kts | 34° |
| 2026-05-06 19:07 | -33.83136 | 151.28177 | 6663 ft | 289 kts | 59° |
| 2026-05-06 19:07 | -33.82324 | 151.30481 | 7599 ft | 295 kts | 69° |
| 2026-05-06 19:07 | -33.81674 | 151.32853 | 8509 ft | 300 kts | 71° |
| 2026-05-06 19:08 | -33.80980 | 151.35233 | 9382 ft | 305 kts | 65° |
| 2026-05-06 19:08 | -33.79995 | 151.37466 | 10246 ft | 306 kts | 53° |
| 2026-05-06 19:08 | -33.78746 | 151.39631 | 10668 ft | 326 kts | 50° |
| 2026-05-06 19:08 | -33.77346 | 151.41895 | 10927 ft | 348 kts | 49° |
| 2026-05-06 19:09 | -33.75825 | 151.44220 | 11501 ft | 356 kts | 47° |
| 2026-05-06 19:09 | -33.74261 | 151.46551 | 12268 ft | 360 kts | 46° |
| 2026-05-06 19:09 | -33.72665 | 151.48903 | 13019 ft | 365 kts | 46° |
| 2026-05-06 19:09 | -33.71048 | 151.51278 | 13787 ft | 368 kts | 46° |
| 2026-05-06 19:10 | -33.69419 | 151.53671 | 14465 ft | 372 kts | 46° |
| 2026-05-06 19:10 | -33.67773 | 151.56090 | 15146 ft | 376 kts | 46° |
| 2026-05-06 19:10 | -33.66104 | 151.58530 | 15816 ft | 379 kts | 44° |
| 2026-05-06 19:10 | -33.64239 | 151.60758 | 16485 ft | 378 kts | 35° |
| 2026-05-06 19:11 | -33.62137 | 151.62626 | 17142 ft | 376 kts | 27° |
| 2026-05-06 19:11 | -33.59924 | 151.64329 | 17844 ft | 378 kts | 27° |
| 2026-05-06 19:11 | -33.57707 | 151.66060 | 18475 ft | 382 kts | 27° |
| 2026-05-06 19:11 | -33.55505 | 151.67788 | 19027 ft | 385 kts | 27° |
| 2026-05-06 19:12 | -33.53257 | 151.69553 | 19475 ft | 391 kts | 27° |
| 2026-05-06 19:12 | -33.50944 | 151.71311 | 20025 ft | 391 kts | 23° |
| 2026-05-06 19:12 | -33.48511 | 151.72714 | 20574 ft | 388 kts | 15° |
| 2026-05-06 19:12 | -33.45950 | 151.73720 | 21109 ft | 385 kts | 8° |
| 2026-05-06 19:13 | -33.43343 | 151.74535 | 21638 ft | 389 kts | 8° |
| 2026-05-06 19:13 | -33.40726 | 151.75372 | 22178 ft | 392 kts | 8° |
| 2026-05-06 19:13 | -33.38078 | 151.76228 | 22722 ft | 394 kts | 8° |
| 2026-05-06 19:13 | -33.35419 | 151.77089 | 23257 ft | 397 kts | 8° |
| 2026-05-06 19:14 | -33.32736 | 151.77957 | 23691 ft | 401 kts | 8° |
| 2026-05-06 19:14 | -33.30024 | 151.78833 | 24142 ft | 404 kts | 8° |
| 2026-05-06 19:14 | -33.27340 | 151.79701 | 24619 ft | 405 kts | 7° |
| 2026-05-06 19:14 | -33.24603 | 151.80585 | 25110 ft | 407 kts | 7° |
| 2026-05-06 19:15 | -33.21866 | 151.81468 | 25562 ft | 409 kts | 7° |
| 2026-05-06 19:15 | -33.19094 | 151.82361 | 26084 ft | 411 kts | 7° |
| 2026-05-06 19:15 | -33.16318 | 151.83255 | 26600 ft | 414 kts | 7° |
| 2026-05-06 19:15 | -33.13530 | 151.84152 | 27151 ft | 417 kts | 7° |
| 2026-05-06 19:16 | -33.10713 | 151.85058 | 27627 ft | 420 kts | 7° |
| 2026-05-06 19:16 | -33.08005 | 151.85922 | 28092 ft | 421 kts | 9° |
| 2026-05-06 19:16 | -33.05166 | 151.86840 | 28417 ft | 423 kts | 7° |
| 2026-05-06 19:16 | -33.02332 | 151.87761 | 29041 ft | 424 kts | 6° |
| 2026-05-06 19:17 | -32.99457 | 151.88679 | 29443 ft | 430 kts | 6° |
| 2026-05-06 19:17 | -32.96550 | 151.89606 | 30018 ft | 433 kts | 6° |
| 2026-05-06 19:17 | -32.93619 | 151.90542 | 30497 ft | 437 kts | 6° |
| 2026-05-06 19:17 | -32.90668 | 151.91485 | 30949 ft | 440 kts | 6° |
| 2026-05-06 19:18 | -32.87699 | 151.92433 | 31374 ft | 444 kts | 6° |
| 2026-05-06 19:18 | -32.84729 | 151.93382 | 31816 ft | 448 kts | 6° |
| 2026-05-06 19:18 | -32.81701 | 151.94349 | 32262 ft | 451 kts | 7° |
| 2026-05-06 19:18 | -32.78656 | 151.95322 | 32716 ft | 454 kts | 7° |
| 2026-05-06 19:19 | -32.75590 | 151.96300 | 33160 ft | 458 kts | 6° |
| 2026-05-06 19:19 | -32.72505 | 151.97283 | 33604 ft | 461 kts | 6° |
| 2026-05-06 19:19 | -32.69391 | 151.98275 | 34047 ft | 465 kts | 6° |
| 2026-05-06 19:19 | -32.66295 | 151.99260 | 34402 ft | 468 kts | 6° |
| 2026-05-06 19:20 | -32.63129 | 152.00267 | 34782 ft | 472 kts | 6° |
| 2026-05-06 19:20 | -32.59960 | 152.01276 | 35253 ft | 473 kts | 6° |
| 2026-05-06 19:20 | -32.56780 | 152.02289 | 35820 ft | 471 kts | 6° |
| 2026-05-06 19:20 | -32.53664 | 152.03289 | 36949 ft | 454 kts | 5° |
| 2026-05-06 19:21 | -32.50675 | 152.04254 | 38252 ft | 435 kts | 4° |
| 2026-05-06 19:21 | -32.47823 | 152.05172 | 39288 ft | 418 kts | 3° |
| 2026-05-06 19:21 | -32.45023 | 152.06058 | 39719 ft | 416 kts | 3° |
| 2026-05-06 19:22 | -32.39319 | 152.07821 | 39833 ft | 430 kts | 3° |
| 2026-05-06 19:22 | -32.33470 | 152.09653 | 39957 ft | 445 kts | 4° |
| 2026-05-06 19:23 | -32.27400 | 152.11568 | 40078 ft | 460 kts | 4° |
| 2026-05-06 19:23 | -32.21105 | 152.13553 | 40220 ft | 474 kts | 4° |
| 2026-05-06 19:23 | -32.17909 | 152.14564 | 40555 ft | 475 kts | 5° |
| 2026-05-06 19:24 | -32.14724 | 152.15571 | 40909 ft | 475 kts | 5° |
| 2026-05-06 19:24 | -32.11512 | 152.16582 | 41030 ft | 481 kts | 5° |
| 2026-05-06 19:24 | -32.08307 | 152.17594 | 41016 ft | 470 kts | 5° |
| 2026-05-06 19:24 | -32.05200 | 152.18585 | 41019 ft | 455 kts | 4° |
| 2026-05-06 19:25 | -32.02140 | 152.19548 | 40869 ft | 454 kts | 4° |
| 2026-05-06 19:25 | -31.99097 | 152.20497 | 40642 ft | 452 kts | 4° |
| 2026-05-06 19:25 | -31.96044 | 152.21446 | 40195 ft | 456 kts | 4° |
| 2026-05-06 19:25 | -31.92936 | 152.22405 | 40047 ft | 467 kts | 4° |
| 2026-05-06 19:26 | -31.89793 | 152.23377 | 40026 ft | 475 kts | 4° |
| 2026-05-06 19:26 | -31.86638 | 152.24374 | 40024 ft | 461 kts | 4° |
| 2026-05-06 19:26 | -31.83592 | 152.25346 | 40024 ft | 447 kts | 4° |
| 2026-05-06 19:26 | -31.80624 | 152.26285 | 39866 ft | 438 kts | 3° |
| 2026-05-06 19:27 | -31.77666 | 152.27201 | 39578 ft | 444 kts | 2° |
| 2026-05-06 19:27 | -31.74639 | 152.28124 | 39536 ft | 455 kts | 2° |
| 2026-05-06 19:27 | -31.71544 | 152.29073 | 39527 ft | 464 kts | 3° |
| 2026-05-06 19:28 | -31.65345 | 152.30992 | 39525 ft | 483 kts | 4° |
| 2026-05-06 19:28 | -31.62129 | 152.32003 | 39347 ft | 475 kts | 3° |
| 2026-05-06 19:28 | -31.58959 | 152.33003 | 39095 ft | 469 kts | 3° |
| 2026-05-06 19:29 | -31.52623 | 152.34969 | 39033 ft | 474 kts | 2° |
| 2026-05-06 19:29 | -31.46230 | 152.36948 | 39041 ft | 475 kts | 3° |
| 2026-05-06 19:30 | -31.39846 | 152.38925 | 39041 ft | 474 kts | 2° |
| 2026-05-06 19:30 | -31.33462 | 152.40897 | 39030 ft | 476 kts | 3° |
| 2026-05-06 19:31 | -31.27073 | 152.42870 | 39028 ft | 473 kts | 2° |
| 2026-05-06 19:31 | -31.17565 | 152.45798 | 39021 ft | 472 kts | 2° |
| 2026-05-06 19:32 | -31.11221 | 152.47749 | 39016 ft | 471 kts | 2° |
| 2026-05-06 19:32 | -31.04892 | 152.49694 | 39015 ft | 470 kts | 2° |
| 2026-05-06 19:33 | -30.98573 | 152.51631 | 39022 ft | 470 kts | 2° |
| 2026-05-06 19:33 | -30.92247 | 152.53566 | 39003 ft | 470 kts | 1° |
| 2026-05-06 19:34 | -30.85926 | 152.55499 | 38973 ft | 470 kts | 1° |
| 2026-05-06 19:34 | -30.79608 | 152.57431 | 39005 ft | 469 kts | 1° |
| 2026-05-06 19:35 | -30.73315 | 152.59641 | 39003 ft | 475 kts | 5° |
| 2026-05-06 19:35 | -30.67092 | 152.61970 | 39014 ft | 474 kts | 4° |
| 2026-05-06 19:36 | -30.60788 | 152.64278 | 38985 ft | 473 kts | 4° |
| 2026-05-06 19:36 | -30.54506 | 152.66547 | 38995 ft | 473 kts | 4° |
| 2026-05-06 19:37 | -30.48380 | 152.68763 | 39001 ft | 473 kts | 4° |
| 2026-05-06 19:37 | -30.43101 | 152.70673 | 39014 ft | 474 kts | 4° |
| 2026-05-06 19:38 | -30.35769 | 152.73314 | 39048 ft | 474 kts | 4° |
| 2026-05-06 19:38 | -30.29460 | 152.75584 | 39031 ft | 477 kts | 4° |
| 2026-05-06 19:39 | -30.23108 | 152.77868 | 39037 ft | 478 kts | 4° |
| 2026-05-06 19:39 | -30.16749 | 152.80153 | 39044 ft | 479 kts | 4° |
| 2026-05-06 19:40 | -30.10398 | 152.82432 | 39054 ft | 479 kts | 4° |
| 2026-05-06 19:40 | -30.04057 | 152.84702 | 39044 ft | 478 kts | 4° |
| 2026-05-06 19:41 | -29.97703 | 152.86973 | 39050 ft | 478 kts | 4° |
| 2026-05-06 19:41 | -29.91337 | 152.89248 | 39011 ft | 478 kts | 4° |
| 2026-05-06 19:42 | -29.86051 | 152.91133 | 39043 ft | 477 kts | 4° |
| 2026-05-06 19:42 | -29.79696 | 152.93395 | 39043 ft | 477 kts | 4° |
| 2026-05-06 19:43 | -29.73345 | 152.95653 | 39041 ft | 477 kts | 4° |
| 2026-05-06 19:43 | -29.67022 | 152.97900 | 39014 ft | 477 kts | 3° |
| 2026-05-06 19:44 | -29.60668 | 153.00155 | 39039 ft | 477 kts | 3° |
| 2026-05-06 19:44 | -29.54328 | 153.02400 | 38920 ft | 475 kts | 3° |
| 2026-05-06 19:45 | -29.51187 | 153.03518 | 38687 ft | 469 kts | 3° |
| 2026-05-06 19:45 | -29.48114 | 153.04608 | 38087 ft | 468 kts | 3° |
| 2026-05-06 19:45 | -29.44981 | 153.05707 | 37111 ft | 473 kts | 4° |
| 2026-05-06 19:45 | -29.41839 | 153.06813 | 36441 ft | 470 kts | 4° |
| 2026-05-06 19:46 | -29.38715 | 153.07916 | 35642 ft | 471 kts | 4° |
| 2026-05-06 19:46 | -29.35575 | 153.09022 | 34869 ft | 471 kts | 4° |
| 2026-05-06 19:46 | -29.32438 | 153.10127 | 34139 ft | 471 kts | 5° |
| 2026-05-06 19:46 | -29.29321 | 153.11229 | 33655 ft | 465 kts | 5° |
| 2026-05-06 19:47 | -29.26249 | 153.12316 | 33114 ft | 459 kts | 5° |
| 2026-05-06 19:47 | -29.23211 | 153.13390 | 32597 ft | 452 kts | 6° |
| 2026-05-06 19:47 | -29.20262 | 153.14429 | 32073 ft | 446 kts | 6° |
| 2026-05-06 19:47 | -29.17301 | 153.15474 | 31609 ft | 439 kts | 5° |
| 2026-05-06 19:48 | -29.14391 | 153.16497 | 31126 ft | 434 kts | 6° |
| 2026-05-06 19:48 | -29.11560 | 153.17489 | 30644 ft | 429 kts | 6° |
| 2026-05-06 19:48 | -29.08721 | 153.18484 | 30170 ft | 424 kts | 6° |
| 2026-05-06 19:48 | -29.05912 | 153.19469 | 29655 ft | 418 kts | 6° |
| 2026-05-06 19:49 | -29.03156 | 153.20437 | 29190 ft | 412 kts | 6° |
| 2026-05-06 19:49 | -29.00436 | 153.21391 | 28748 ft | 406 kts | 6° |
| 2026-05-06 19:49 | -28.97746 | 153.22334 | 28312 ft | 400 kts | 6° |
| 2026-05-06 19:49 | -28.95105 | 153.23260 | 27852 ft | 395 kts | 5° |
| 2026-05-06 19:50 | -28.92479 | 153.24178 | 27416 ft | 393 kts | 5° |
| 2026-05-06 19:50 | -28.89864 | 153.25087 | 26976 ft | 392 kts | 6° |
| 2026-05-06 19:50 | -28.87266 | 153.25991 | 26538 ft | 391 kts | 6° |
| 2026-05-06 19:50 | -28.84662 | 153.26899 | 26105 ft | 389 kts | 6° |
| 2026-05-06 19:51 | -28.82083 | 153.27800 | 25672 ft | 385 kts | 6° |
| 2026-05-06 19:51 | -28.79533 | 153.28691 | 25245 ft | 383 kts | 7° |
| 2026-05-06 19:51 | -28.76993 | 153.29576 | 24818 ft | 381 kts | 7° |
| 2026-05-06 19:51 | -28.74456 | 153.30460 | 24388 ft | 380 kts | 7° |
| 2026-05-06 19:52 | -28.71966 | 153.31327 | 23949 ft | 378 kts | 7° |
| 2026-05-06 19:52 | -28.69421 | 153.32213 | 23509 ft | 376 kts | 8° |
| 2026-05-06 19:52 | -28.66954 | 153.33072 | 23067 ft | 373 kts | 8° |
| 2026-05-06 19:52 | -28.64487 | 153.33931 | 22645 ft | 371 kts | 8° |
| 2026-05-06 19:53 | -28.62019 | 153.34789 | 22207 ft | 370 kts | 8° |
| 2026-05-06 19:53 | -28.59561 | 153.35643 | 21777 ft | 367 kts | 8° |
| 2026-05-06 19:53 | -28.57116 | 153.36493 | 21347 ft | 365 kts | 9° |
| 2026-05-06 19:53 | -28.54688 | 153.37335 | 20929 ft | 363 kts | 9° |
| 2026-05-06 19:54 | -28.52277 | 153.38174 | 20498 ft | 361 kts | 9° |
| 2026-05-06 19:54 | -28.49878 | 153.39007 | 20064 ft | 360 kts | 9° |
| 2026-05-06 19:54 | -28.47491 | 153.39834 | 19628 ft | 357 kts | 9° |
| 2026-05-06 19:54 | -28.45150 | 153.40644 | 19223 ft | 355 kts | 10° |
| 2026-05-06 19:55 | -28.42792 | 153.41459 | 18794 ft | 354 kts | 10° |
| 2026-05-06 19:55 | -28.40439 | 153.42273 | 18376 ft | 352 kts | 10° |
| 2026-05-06 19:55 | -28.38099 | 153.43084 | 17844 ft | 350 kts | 11° |
| 2026-05-06 19:55 | -28.35745 | 153.43896 | 17154 ft | 356 kts | 11° |
| 2026-05-06 19:56 | -28.33341 | 153.44724 | 16819 ft | 364 kts | 11° |
| 2026-05-06 19:56 | -28.30907 | 153.45564 | 16515 ft | 366 kts | 12° |
| 2026-05-06 19:56 | -28.28477 | 153.46405 | 16070 ft | 364 kts | 12° |
| 2026-05-06 19:56 | -28.26067 | 153.47241 | 15616 ft | 359 kts | 12° |
| 2026-05-06 19:57 | -28.23699 | 153.48062 | 15169 ft | 353 kts | 12° |
| 2026-05-06 19:57 | -28.21370 | 153.48867 | 14728 ft | 347 kts | 12° |
| 2026-05-06 19:57 | -28.19068 | 153.49602 | 14293 ft | 338 kts | 5° |
| 2026-05-06 19:57 | -28.16774 | 153.49607 | 13882 ft | 325 kts | 346° |
| 2026-05-06 19:58 | -28.14721 | 153.48776 | 13462 ft | 314 kts | 328° |
| 2026-05-06 19:58 | -28.12925 | 153.47423 | 13073 ft | 306 kts | 323° |
| 2026-05-06 19:58 | -28.11161 | 153.46081 | 12693 ft | 305 kts | 324° |
| 2026-05-06 19:58 | -28.09392 | 153.44750 | 12306 ft | 305 kts | 324° |
| 2026-05-06 19:59 | -28.07631 | 153.43429 | 11910 ft | 304 kts | 324° |
| 2026-05-06 19:59 | -28.05864 | 153.42103 | 11507 ft | 304 kts | 324° |
| 2026-05-06 19:59 | -28.04105 | 153.40781 | 11115 ft | 304 kts | 324° |
| 2026-05-06 19:59 | -28.02343 | 153.39457 | 10721 ft | 303 kts | 324° |
| 2026-05-06 20:00 | -28.00595 | 153.38145 | 10417 ft | 299 kts | 324° |
| 2026-05-06 20:00 | -27.98902 | 153.36875 | 10316 ft | 286 kts | 324° |
| 2026-05-06 20:00 | -27.97276 | 153.35656 | 10083 ft | 282 kts | 324° |
| 2026-05-06 20:00 | -27.95723 | 153.34398 | 9890 ft | 279 kts | 318° |
| 2026-05-06 20:01 | -27.94231 | 153.32991 | 9755 ft | 280 kts | 318° |
| 2026-05-06 20:01 | -27.92724 | 153.31588 | 9635 ft | 280 kts | 319° |
| 2026-05-06 20:01 | -27.91219 | 153.30198 | 9407 ft | 280 kts | 319° |
| 2026-05-06 20:01 | -27.89705 | 153.28801 | 9113 ft | 278 kts | 319° |
| 2026-05-06 20:02 | -27.88220 | 153.27434 | 8850 ft | 272 kts | 319° |
| 2026-05-06 20:02 | -27.86788 | 153.26113 | 8577 ft | 267 kts | 319° |
| 2026-05-06 20:02 | -27.85361 | 153.24798 | 8299 ft | 262 kts | 319° |
| 2026-05-06 20:02 | -27.83947 | 153.23516 | 8023 ft | 257 kts | 320° |
| 2026-05-06 20:03 | -27.82532 | 153.22314 | 7759 ft | 254 kts | 321° |
| 2026-05-06 20:03 | -27.81132 | 153.21148 | 7489 ft | 250 kts | 321° |
| 2026-05-06 20:03 | -27.79727 | 153.19978 | 7219 ft | 252 kts | 321° |
| 2026-05-06 20:03 | -27.78349 | 153.18768 | 6944 ft | 250 kts | 316° |
| 2026-05-06 20:04 | -27.77189 | 153.17314 | 6648 ft | 247 kts | 306° |
| 2026-05-06 20:04 | -27.76153 | 153.15758 | 6383 ft | 248 kts | 306° |
| 2026-05-06 20:04 | -27.75103 | 153.14222 | 6096 ft | 246 kts | 307° |
| 2026-05-06 20:04 | -27.73980 | 153.12775 | 5832 ft | 245 kts | 310° |
| 2026-05-06 20:05 | -27.72843 | 153.11347 | 5538 ft | 243 kts | 310° |
| 2026-05-06 20:05 | -27.71723 | 153.09929 | 5263 ft | 241 kts | 310° |
| 2026-05-06 20:05 | -27.70628 | 153.08539 | 4987 ft | 241 kts | 310° |
| 2026-05-06 20:05 | -27.69518 | 153.07128 | 4751 ft | 238 kts | 310° |
| 2026-05-06 20:06 | -27.68445 | 153.05768 | 4681 ft | 227 kts | 310° |
| 2026-05-06 20:06 | -27.67417 | 153.04466 | 4584 ft | 218 kts | 310° |
| 2026-05-06 20:06 | -27.66419 | 153.03199 | 4409 ft | 220 kts | 310° |
| 2026-05-06 20:06 | -27.65386 | 153.01885 | 4127 ft | 227 kts | 310° |
| 2026-05-06 20:07 | -27.64321 | 153.00534 | 4031 ft | 230 kts | 312° |
| 2026-05-06 20:07 | -27.63075 | 152.99498 | 4026 ft | 217 kts | 333° |
| 2026-05-06 20:07 | -27.61714 | 152.99045 | 4042 ft | 194 kts | 344° |
| 2026-05-06 20:07 | -27.60484 | 152.98737 | 4027 ft | 170 kts | 349° |
| 2026-05-06 20:08 | -27.59372 | 152.98818 | 4020 ft | 155 kts | 9° |
| 2026-05-06 20:08 | -27.58428 | 152.99179 | 4029 ft | 151 kts | 20° |
| 2026-05-06 20:08 | -27.57565 | 152.99632 | 4029 ft | 150 kts | 24° |
| 2026-05-06 20:08 | -27.56635 | 153.00166 | 3939 ft | 150 kts | 24° |
| 2026-05-06 20:09 | -27.55713 | 153.00692 | 3770 ft | 149 kts | 24° |
| 2026-05-06 20:09 | -27.54790 | 153.01222 | 3557 ft | 148 kts | 24° |
| 2026-05-06 20:09 | -27.53873 | 153.01750 | 3381 ft | 148 kts | 24° |
| 2026-05-06 20:09 | -27.52953 | 153.02278 | 3182 ft | 148 kts | 24° |
| 2026-05-06 20:10 | -27.52039 | 153.02803 | 2993 ft | 148 kts | 24° |
| 2026-05-06 20:10 | -27.51026 | 153.03381 | 2797 ft | 175 kts | 25° |
| 2026-05-06 20:10 | -27.49971 | 153.03990 | 2557 ft | 183 kts | 25° |
| 2026-05-06 20:10 | -27.48832 | 153.04645 | 2316 ft | 172 kts | 25° |
| 2026-05-06 20:11 | -27.47841 | 153.05215 | 2091 ft | 152 kts | 25° |
| 2026-05-06 20:11 | -27.46928 | 153.05738 | 1888 ft | 144 kts | 25° |
| 2026-05-06 20:11 | -27.46039 | 153.06248 | 1714 ft | 143 kts | 25° |
| 2026-05-06 20:11 | -27.45151 | 153.06757 | 1514 ft | 143 kts | 25° |
| 2026-05-06 20:12 | -27.44299 | 153.07246 | 1345 ft | 142 kts | 25° |
| 2026-05-06 20:12 | -27.43428 | 153.07745 | 1153 ft | 142 kts | 25° |
| 2026-05-06 20:12 | -27.42551 | 153.08249 | 978 ft | 142 kts | 26° |
| 2026-05-06 20:12 | -27.41661 | 153.08759 | 784 ft | 143 kts | 26° |
| 2026-05-06 20:13 | -27.40784 | 153.09262 | 600 ft | 142 kts | 27° |
| 2026-05-06 20:13 | -27.39907 | 153.09764 | 411 ft | 145 kts | 27° |
| 2026-05-06 20:13 | -27.39014 | 153.10278 | 226 ft | 143 kts | 27° |
| 2026-05-06 20:13 | -27.38125 | 153.10785 | 39 ft | 142 kts | 27° |
| 2026-05-06 20:14 | -27.37375 | 153.11214 | 27 ft | 88 kts | 26° |
| 2026-05-06 20:14 | -27.37176 | 153.11388 | 27 ft | 10 kts | 54° |
| 2026-05-06 20:14 | -27.37109 | 153.11493 | 26 ft | 1 kts | 54° |
| 2026-05-06 20:14 | -27.37086 | 153.11529 | 26 ft | 9 kts | 63° |
| 2026-05-06 20:15 | -27.37067 | 153.11607 | 24 ft | 12 kts | 83° |
| 2026-05-06 20:15 | -27.37093 | 153.11666 | 24 ft | 10 kts | 154° |
| 2026-05-06 20:15 | -27.37161 | 153.11668 | 24 ft | 11 kts | 199° |
| 2026-05-06 20:15 | -27.37239 | 153.11627 | 27 ft | 14 kts | 206° |
| 2026-05-06 20:16 | -27.37260 | 153.11615 | 26 ft | 2 kts | 208° |
| 2026-05-06 20:16 | -27.37275 | 153.11606 | 27 ft | 0 kts | 204° |
| 2026-05-06 20:16 | -27.37276 | 153.11605 | 26 ft | 1 kts | 199° |
| 2026-05-06 20:16 | -27.37295 | 153.11605 | 25 ft | 5 kts | 167° |
| 2026-05-06 20:17 | -27.37329 | 153.11630 | 28 ft | 8 kts | 129° |
| 2026-05-06 20:17 | -27.37366 | 153.11698 | 28 ft | 13 kts | 119° |
| 2026-05-06 20:17 | -27.37413 | 153.11800 | 27 ft | 16 kts | 116° |
| 2026-05-06 20:17 | -27.37454 | 153.11892 | 23 ft | 9 kts | 116° |
| 2026-05-06 20:18 | -27.37489 | 153.11972 | 24 ft | 14 kts | 116° |
| 2026-05-06 20:18 | -27.37521 | 153.12045 | 23 ft | 11 kts | 116° |
| 2026-05-06 20:18 | -27.37556 | 153.12123 | 25 ft | 6 kts | 116° |
| 2026-05-06 20:18 | -27.37584 | 153.12187 | 24 ft | 12 kts | 116° |
| 2026-05-06 20:19 | -27.37615 | 153.12255 | 28 ft | 0 kts | 117° |
| 2026-05-06 20:19 | -27.37625 | 153.12278 | 25 ft | 0 kts | 118° |
| 2026-05-06 20:19 | -27.37626 | 153.12279 | 26 ft | 1 kts | 118° |
| 2026-05-06 20:19 | -27.37644 | 153.12308 | 25 ft | 6 kts | 142° |
| 2026-05-06 20:20 | -27.37696 | 153.12326 | 25 ft | 10 kts | 171° |
| 2026-05-06 20:20 | -27.37743 | 153.12349 | 27 ft | 7 kts | 139° |
| 2026-05-06 20:20 | -27.37781 | 153.12402 | 23 ft | 11 kts | 116° |
| 2026-05-06 20:20 | -27.37815 | 153.12475 | 26 ft | 10 kts | 120° |
| 2026-05-06 20:21 | -27.37855 | 153.12558 | 24 ft | 14 kts | 118° |
| 2026-05-06 20:21 | -27.37901 | 153.12661 | 25 ft | 7 kts | 116° |
| 2026-05-06 20:21 | -27.37930 | 153.12723 | 24 ft | 11 kts | 120° |
| 2026-05-06 20:21 | -27.37958 | 153.12773 | 25 ft | 0 kts | 129° |
| 2026-05-06 20:22 | -27.37961 | 153.12777 | 25 ft | 1 kts | 143° |
| 2026-05-06 20:22 | -27.37966 | 153.12780 | 25 ft | 1 kts | 169° |
| 2026-05-06 20:22 | -27.37973 | 153.12781 | 27 ft | 2 kts | 195° |
| 2026-05-06 20:22 | -27.38015 | 153.12758 | 27 ft | 10 kts | 207° |
| 2026-05-06 20:23 | -27.38084 | 153.12714 | 27 ft | 13 kts | 210° |
| 2026-05-06 20:23 | -27.38170 | 153.12663 | 27 ft | 15 kts | 206° |
| 2026-05-06 20:23 | -27.38268 | 153.12608 | 26 ft | 16 kts | 206° |
| 2026-05-06 20:23 | -27.38372 | 153.12550 | 27 ft | 14 kts | 206° |
| 2026-05-06 20:24 | -27.38421 | 153.12522 | 28 ft | 9 kts | 209° |
| 2026-05-06 20:24 | -27.38451 | 153.12480 | 27 ft | 6 kts | 258° |
| 2026-05-06 20:24 | -27.38446 | 153.12419 | 26 ft | 10 kts | 281° |
| 2026-05-06 20:24 | -27.38436 | 153.12343 | 27 ft | 11 kts | 274° |
| 2026-05-06 20:25 | -27.38435 | 153.12299 | 23 ft | 3 kts | 271° |
| 2026-05-06 20:25 | -27.38428 | 153.12256 | 24 ft | 6 kts | 291° |
| 2026-05-06 20:25 | -27.38405 | 153.12215 | 24 ft | 7 kts | 314° |
| 2026-05-06 20:25 | -27.38396 | 153.12204 | 28 ft | 3 kts | 311° |
| 2026-05-06 20:26 | -27.38385 | 153.12185 | 24 ft | 4 kts | 289° |
| 2026-05-06 20:26 | -27.38382 | 153.12174 | 25 ft | 0 kts | 282° |
| 2026-05-06 20:26 | -27.38382 | 153.12171 | 25 ft | 0 kts | 282° |
| 2026-05-06 20:27 | -27.38380 | 153.12161 | 27 ft | 0 kts | 276° |
| 2026-05-06 20:27 | -27.38380 | 153.12156 | 27 ft | 0 kts | 270° |